createdAt,value
2022-11-29T00:00:23.689Z,99.99
2022-11-29T00:01:23.680Z,99.99
2022-11-29T00:02:23.754Z,99.99
2022-11-29T00:03:23.672Z,99.99
2022-11-29T00:04:23.650Z,99.99
2022-11-29T00:05:23.669Z,99.99
2022-11-29T00:06:23.628Z,99.99
2022-11-29T00:07:23.664Z,99.99
2022-11-29T00:08:23.605Z,99.99
2022-11-29T00:09:23.589Z,99.99
2022-11-29T00:10:23.585Z,99.99
2022-11-29T00:11:23.600Z,99.99
2022-11-29T00:12:23.578Z,99.99
2022-11-29T00:13:23.572Z,99.99
2022-11-29T00:14:23.560Z,99.99
2022-11-29T00:15:23.577Z,99.99
2022-11-29T00:16:23.551Z,99.99
2022-11-29T00:17:23.616Z,99.99
2022-11-29T00:18:23.499Z,99.99
2022-11-29T00:19:23.497Z,99.99
2022-11-29T00:20:23.477Z,99.99
2022-11-29T00:21:23.468Z,99.99
2022-11-29T00:22:23.448Z,99.99
2022-11-29T00:23:23.480Z,99.99
2022-11-29T00:24:23.427Z,99.99
2022-11-29T00:25:23.455Z,99.99
2022-11-29T00:26:23.410Z,99.99
2022-11-29T00:27:23.459Z,99.99
2022-11-29T00:28:23.387Z,99.99
2022-11-29T00:29:23.384Z,99.99
2022-11-29T00:30:23.422Z,99.99
2022-11-29T00:31:23.357Z,99.99
2022-11-29T00:32:23.386Z,99.99
2022-11-29T00:33:23.349Z,99.99
2022-11-29T00:34:23.337Z,99.99
2022-11-29T00:35:23.361Z,99.99
2022-11-29T00:36:23.305Z,99.99
2022-11-29T00:37:23.298Z,99.99
2022-11-29T00:38:23.287Z,99.99
2022-11-29T00:39:23.281Z,99.99
2022-11-29T00:40:23.265Z,99.99
2022-11-29T00:41:23.289Z,99.99
2022-11-29T00:42:23.249Z,99.99
2022-11-29T00:43:23.230Z,99.99
2022-11-29T00:44:23.234Z,99.99
2022-11-29T00:45:23.247Z,99.99
2022-11-29T00:46:23.261Z,99.99
2022-11-29T00:47:23.216Z,99.99
2022-11-29T00:48:23.216Z,99.99
2022-11-29T00:49:23.195Z,99.99
2022-11-29T00:50:23.158Z,99.99
2022-11-29T00:51:23.185Z,99.99
2022-11-29T00:52:23.135Z,99.99
2022-11-29T00:53:23.196Z,99.99
2022-11-29T00:54:23.116Z,99.99
2022-11-29T00:55:23.107Z,99.99
2022-11-29T00:56:23.107Z,99.99
2022-11-29T00:57:23.086Z,99.99
2022-11-29T00:58:23.107Z,99.99
2022-11-29T00:59:23.065Z,99.99
2022-11-29T01:00:23.096Z,99.99
2022-11-29T01:01:23.142Z,99.99
2022-11-29T01:02:23.088Z,99.99
2022-11-29T01:03:23.017Z,99.99
2022-11-29T01:04:23.017Z,99.99
2022-11-29T01:05:23.015Z,99.99
2022-11-29T01:06:23.015Z,99.99
2022-11-29T01:07:23.033Z,99.99
2022-11-29T01:08:22.964Z,99.99
2022-11-29T01:09:22.961Z,99.99
2022-11-29T01:10:22.938Z,99.99
2022-11-29T01:11:22.974Z,99.99
2022-11-29T01:12:22.955Z,99.99
2022-11-29T01:13:22.960Z,99.99
2022-11-29T01:14:22.906Z,99.99
2022-11-29T01:15:22.894Z,99.99
2022-11-29T01:16:22.950Z,99.99
2022-11-29T01:17:22.875Z,99.99
2022-11-29T01:18:22.856Z,99.99
2022-11-29T01:19:22.847Z,99.99
2022-11-29T01:20:22.834Z,99.99
2022-11-29T01:21:22.845Z,99.99
2022-11-29T01:22:22.858Z,99.99
2022-11-29T01:23:22.811Z,99.99
2022-11-29T01:24:22.814Z,99.99
2022-11-29T01:25:22.785Z,99.99
2022-11-29T01:26:22.766Z,99.99
2022-11-29T01:27:22.784Z,99.99
2022-11-29T01:28:22.775Z,99.99
2022-11-29T01:29:22.775Z,99.99
2022-11-29T01:30:22.732Z,99.99
2022-11-29T01:31:22.725Z,99.99
2022-11-29T01:32:22.734Z,99.99
2022-11-29T01:33:22.694Z,99.99
2022-11-29T01:34:22.712Z,99.99
2022-11-29T01:35:22.685Z,99.99
2022-11-29T01:36:22.662Z,99.99
2022-11-29T01:37:22.653Z,99.99
2022-11-29T01:38:22.645Z,99.99
2022-11-29T01:39:22.666Z,99.99
2022-11-29T01:40:22.620Z,99.99
2022-11-29T01:41:22.644Z,99.99
2022-11-29T01:42:22.593Z,99.99
2022-11-29T01:43:22.594Z,99.99
2022-11-29T01:44:22.578Z,99.99
2022-11-29T01:45:22.617Z,99.99
2022-11-29T01:46:22.593Z,99.99
2022-11-29T01:47:22.552Z,99.99
2022-11-29T01:48:22.534Z,99.99
2022-11-29T01:49:22.564Z,99.99
2022-11-29T01:50:22.571Z,99.99
2022-11-29T01:51:22.532Z,99.99
2022-11-29T01:52:22.492Z,99.99
2022-11-29T01:53:22.490Z,99.99
2022-11-29T01:54:22.474Z,99.99
2022-11-29T01:55:22.495Z,99.99
2022-11-29T01:56:22.482Z,99.99
2022-11-29T01:57:22.483Z,99.99
2022-11-29T01:58:22.433Z,99.99
2022-11-29T01:59:22.422Z,99.99
2022-11-29T02:00:22.402Z,99.99
2022-11-29T02:01:22.666Z,99.99
2022-11-29T02:02:22.419Z,99.99
2022-11-29T02:03:22.382Z,99.99
2022-11-29T02:04:22.362Z,99.99
2022-11-29T02:05:22.402Z,99.99
2022-11-29T02:06:22.344Z,99.99
2022-11-29T02:07:22.397Z,99.99
2022-11-29T02:08:22.392Z,99.99
2022-11-29T02:09:22.323Z,99.99
2022-11-29T02:10:22.300Z,99.99
2022-11-29T02:11:22.321Z,99.99
2022-11-29T02:12:22.271Z,99.99
2022-11-29T02:13:22.273Z,99.99
2022-11-29T02:14:22.279Z,99.99
2022-11-29T02:15:22.258Z,99.99
2022-11-29T02:16:22.273Z,99.99
2022-11-29T02:17:22.291Z,99.99
2022-11-29T02:18:22.224Z,99.99
2022-11-29T02:19:22.240Z,99.99
2022-11-29T02:20:22.205Z,99.99
2022-11-29T02:21:22.201Z,99.99
2022-11-29T02:22:22.184Z,99.99
2022-11-29T02:23:22.232Z,99.99
2022-11-29T02:24:22.172Z,99.99
2022-11-29T02:25:22.157Z,99.99
2022-11-29T02:26:22.136Z,99.99
2022-11-29T02:27:22.132Z,99.99
2022-11-29T02:28:22.122Z,99.99
2022-11-29T02:29:22.142Z,99.99
2022-11-29T02:30:22.101Z,99.99
2022-11-29T02:31:22.094Z,99.99
2022-11-29T02:32:22.482Z,99.99
2022-11-29T02:33:22.116Z,99.99
2022-11-29T02:34:22.058Z,99.99
2022-11-29T02:35:22.064Z,99.99
2022-11-29T02:36:22.041Z,99.99
2022-11-29T02:37:22.036Z,99.99
2022-11-29T02:38:22.028Z,99.99
2022-11-29T02:39:22.060Z,99.99
2022-11-29T02:40:21.980Z,99.99
2022-11-29T02:41:22.064Z,99.99
2022-11-29T02:42:21.972Z,99.99
2022-11-29T02:43:21.961Z,99.99
2022-11-29T02:44:21.948Z,99.99
2022-11-29T02:45:21.979Z,99.99
2022-11-29T02:46:21.984Z,99.99
2022-11-29T02:47:21.920Z,99.99
2022-11-29T02:48:21.910Z,99.99
2022-11-29T02:49:21.893Z,99.99
2022-11-29T02:50:21.929Z,99.99
2022-11-29T02:51:21.879Z,99.99
2022-11-29T02:52:21.878Z,99.99
2022-11-29T02:53:21.851Z,99.99
2022-11-29T02:54:22.080Z,99.99
2022-11-29T02:55:21.830Z,99.99
2022-11-29T02:56:21.820Z,99.99
2022-11-29T02:57:21.803Z,99.99
2022-11-29T02:58:21.811Z,99.99
2022-11-29T02:59:21.785Z,99.99
2022-11-29T03:00:21.831Z,99.99
2022-11-29T03:01:21.807Z,99.99
2022-11-29T03:02:21.815Z,99.99
2022-11-29T03:03:21.749Z,99.99
2022-11-29T03:04:21.740Z,99.99
2022-11-29T03:05:21.710Z,99.99
2022-11-29T03:06:21.749Z,99.99
2022-11-29T03:07:21.774Z,99.99
2022-11-29T03:09:31.688Z,99.99
2022-11-29T03:10:31.670Z,99.99
2022-11-29T03:11:31.775Z,99.99
2022-11-29T03:12:31.646Z,99.99
2022-11-29T03:13:31.626Z,99.99
2022-11-29T03:14:31.663Z,99.99
2022-11-29T03:15:31.667Z,99.99
2022-11-29T03:16:31.594Z,99.99
2022-11-29T03:17:31.584Z,99.99
2022-11-29T03:18:31.585Z,99.99
2022-11-29T03:19:31.564Z,99.99
2022-11-29T03:20:31.580Z,99.99
2022-11-29T03:21:31.535Z,99.99
2022-11-29T03:22:31.534Z,99.99
2022-11-29T03:23:31.513Z,99.99
2022-11-29T03:24:31.503Z,99.99
2022-11-29T03:25:31.524Z,99.99
2022-11-29T03:26:31.484Z,99.99
2022-11-29T03:27:31.472Z,99.99
2022-11-29T03:28:31.465Z,99.99
2022-11-29T03:29:31.474Z,99.99
2022-11-29T03:30:31.452Z,99.99
2022-11-29T03:31:31.507Z,99.99
2022-11-29T03:32:31.424Z,99.99
2022-11-29T03:33:31.403Z,99.99
2022-11-29T03:34:31.445Z,99.99
2022-11-29T03:35:31.385Z,99.99
2022-11-29T03:36:31.383Z,99.99
2022-11-29T03:37:31.374Z,99.99
2022-11-29T03:38:31.354Z,99.99
2022-11-29T03:39:31.345Z,99.99
2022-11-29T03:40:31.373Z,99.99
2022-11-29T03:41:31.319Z,99.99
2022-11-29T03:42:31.313Z,99.99
2022-11-29T03:43:31.305Z,99.99
2022-11-29T03:44:31.329Z,99.99
2022-11-29T03:45:31.283Z,99.99
2022-11-29T03:46:31.388Z,99.99
2022-11-29T03:47:31.263Z,99.99
2022-11-29T03:48:31.255Z,99.99
2022-11-29T03:49:31.233Z,99.99
2022-11-29T03:50:31.252Z,99.99
2022-11-29T03:51:31.211Z,99.99
2022-11-29T03:52:31.205Z,99.99
2022-11-29T03:53:31.220Z,99.99
2022-11-29T03:54:31.182Z,99.99
2022-11-29T03:55:31.174Z,99.99
2022-11-29T03:56:31.163Z,99.99
2022-11-29T03:57:31.171Z,99.99
2022-11-29T03:58:31.142Z,99.99
2022-11-29T03:59:31.131Z,99.99
2022-11-29T04:00:31.118Z,99.99
2022-11-29T04:01:31.149Z,99.99
2022-11-29T04:02:31.189Z,99.99
2022-11-29T04:03:31.125Z,99.99
2022-11-29T04:04:31.083Z,99.99
2022-11-29T04:05:31.065Z,99.99
2022-11-29T04:06:31.052Z,99.99
2022-11-29T04:07:31.057Z,99.99
2022-11-29T04:08:31.032Z,99.99
2022-11-29T04:09:31.041Z,99.99
2022-11-29T04:10:31.010Z,99.99
2022-11-29T04:11:31.001Z,99.99
2022-11-29T04:12:31.009Z,99.99
2022-11-29T04:13:30.978Z,99.99
2022-11-29T04:14:30.990Z,99.99
2022-11-29T04:15:30.960Z,99.99
2022-11-29T04:16:30.953Z,99.99
2022-11-29T04:17:30.935Z,99.99
2022-11-29T04:18:30.930Z,99.99
2022-11-29T04:19:30.931Z,99.99
2022-11-29T04:20:34.946Z,99.99
2022-11-29T04:21:31.891Z,99.99
2022-11-29T04:22:30.880Z,99.99
2022-11-29T04:23:30.878Z,99.99
2022-11-29T04:24:31.006Z,99.99
2022-11-29T04:25:30.911Z,99.99
2022-11-29T04:26:34.796Z,99.99
2022-11-29T04:27:30.856Z,99.99
2022-11-29T04:28:30.810Z,99.99
2022-11-29T04:29:30.807Z,99.99
2022-11-29T04:30:30.819Z,99.99
2022-11-29T04:31:30.848Z,99.99
2022-11-29T04:32:30.770Z,99.99
2022-11-29T04:33:30.760Z,99.99
2022-11-29T04:34:30.750Z,99.99
2022-11-29T04:35:30.751Z,99.99
2022-11-29T04:36:30.749Z,99.99
2022-11-29T04:37:30.759Z,99.99
2022-11-29T04:38:30.745Z,99.99
2022-11-29T04:39:30.709Z,99.99
2022-11-29T04:40:30.679Z,99.99
2022-11-29T04:41:30.729Z,99.99
2022-11-29T04:42:30.666Z,99.99
2022-11-29T04:43:30.759Z,99.99
2022-11-29T04:44:30.651Z,99.99
2022-11-29T04:45:30.636Z,99.99
2022-11-29T04:46:30.720Z,99.99
2022-11-29T04:47:30.648Z,99.99
2022-11-29T04:48:30.600Z,99.99
2022-11-29T04:49:30.707Z,99.99
2022-11-29T04:50:30.577Z,99.99
2022-11-29T04:51:32.221Z,99.99
2022-11-29T04:52:30.591Z,99.99
2022-11-29T04:53:30.554Z,99.99
2022-11-29T04:54:30.539Z,99.99
2022-11-29T04:55:31.281Z,99.99
2022-11-29T04:56:30.548Z,99.99
2022-11-29T04:57:30.519Z,99.99
2022-11-29T04:58:30.489Z,99.99
2022-11-29T04:59:30.518Z,99.99
2022-11-29T05:00:30.468Z,99.99
2022-11-29T05:01:30.501Z,99.99
2022-11-29T05:02:30.523Z,99.99
2022-11-29T05:03:30.457Z,99.99
2022-11-29T05:04:30.435Z,99.99
2022-11-29T05:05:30.615Z,99.99
2022-11-29T05:06:30.450Z,99.99
2022-11-29T05:07:30.411Z,99.99
2022-11-29T05:08:30.377Z,99.99
2022-11-29T05:09:30.376Z,99.99
2022-11-29T05:10:30.518Z,99.99
2022-11-29T05:11:30.378Z,99.99
2022-11-29T05:12:30.347Z,99.99
2022-11-29T05:13:30.347Z,99.99
2022-11-29T05:14:30.318Z,99.99
2022-11-29T05:15:30.315Z,99.99
2022-11-29T05:16:30.387Z,99.99
2022-11-29T05:17:30.295Z,99.99
2022-11-29T05:18:30.275Z,99.99
2022-11-29T05:19:30.305Z,99.99
2022-11-29T05:20:30.245Z,99.99
2022-11-29T05:21:30.244Z,99.99
2022-11-29T05:22:30.253Z,99.99
2022-11-29T05:23:30.224Z,99.99
2022-11-29T05:24:30.214Z,99.99
2022-11-29T05:25:30.195Z,99.99
2022-11-29T05:26:30.185Z,99.99
2022-11-29T05:27:30.186Z,99.99
2022-11-29T05:28:30.193Z,99.99
2022-11-29T05:29:30.154Z,99.99
2022-11-29T05:30:30.164Z,99.99
2022-11-29T05:31:30.200Z,99.99
2022-11-29T05:32:30.123Z,99.99
2022-11-29T05:33:30.114Z,99.99
2022-11-29T05:34:34.713Z,99.99
2022-11-29T05:35:31.163Z,99.99
2022-11-29T05:36:30.074Z,99.99
2022-11-29T05:37:30.123Z,99.99
2022-11-29T05:38:30.064Z,99.99
2022-11-29T05:39:30.045Z,99.99
2022-11-29T05:40:30.055Z,99.99
2022-11-29T05:41:30.023Z,99.99
2022-11-29T05:42:30.012Z,99.99
2022-11-29T05:43:30.043Z,99.99
2022-11-29T05:44:29.983Z,99.99
2022-11-29T05:45:30.022Z,99.99
2022-11-29T05:46:30.032Z,99.99
2022-11-29T05:47:31.648Z,99.99
2022-11-29T05:48:29.983Z,99.99
2022-11-29T05:49:29.944Z,99.99
2022-11-29T05:50:29.935Z,99.99
2022-11-29T05:51:29.934Z,99.99
2022-11-29T05:52:29.965Z,99.99
2022-11-29T05:53:29.900Z,99.99
2022-11-29T05:54:29.904Z,99.99
2022-11-29T05:55:29.878Z,99.99
2022-11-29T05:56:29.864Z,99.99
2022-11-29T05:57:29.858Z,99.99
2022-11-29T05:58:30.736Z,99.99
2022-11-29T05:59:29.854Z,99.99
2022-11-29T06:00:29.828Z,99.99
2022-11-29T06:01:29.887Z,99.99
2022-11-29T06:02:29.829Z,99.99
2022-11-29T06:03:29.813Z,99.99
2022-11-29T06:04:29.823Z,99.99
2022-11-29T06:05:29.783Z,99.99
2022-11-29T06:06:29.753Z,99.99
2022-11-29T06:07:29.831Z,99.99
2022-11-29T06:08:29.733Z,99.99
2022-11-29T06:09:29.826Z,99.99
2022-11-29T06:10:29.714Z,99.99
2022-11-29T06:11:29.722Z,99.99
2022-11-29T06:12:29.692Z,99.99
2022-11-29T06:13:29.731Z,99.99
2022-11-29T06:14:29.670Z,99.99
2022-11-29T06:15:29.662Z,99.99
2022-11-29T06:16:29.711Z,99.99
2022-11-29T06:17:34.363Z,99.99
2022-11-29T06:18:30.702Z,99.99
2022-11-29T06:19:29.653Z,99.99
2022-11-29T06:20:29.601Z,99.99
2022-11-29T06:21:29.592Z,99.99
2022-11-29T06:22:29.581Z,99.99
2022-11-29T06:23:29.572Z,99.99
2022-11-29T06:24:29.651Z,99.99
2022-11-29T06:25:29.599Z,99.99
2022-11-29T06:26:29.531Z,99.99
2022-11-29T06:27:29.552Z,99.99
2022-11-29T06:28:29.511Z,99.99
2022-11-29T06:29:29.508Z,99.99
2022-11-29T06:30:29.508Z,99.99
2022-11-29T06:31:31.779Z,99.99
2022-11-29T06:32:29.475Z,99.99
2022-11-29T06:33:29.471Z,99.99
2022-11-29T06:34:31.006Z,99.99
2022-11-29T06:35:29.441Z,99.99
2022-11-29T06:36:29.430Z,99.99
2022-11-29T06:37:29.555Z,99.99
2022-11-29T06:38:29.402Z,99.99
2022-11-29T06:39:29.398Z,99.99
2022-11-29T06:40:29.398Z,99.99
2022-11-29T06:41:29.370Z,99.99
2022-11-29T06:42:29.390Z,99.99
2022-11-29T06:43:29.391Z,99.99
2022-11-29T06:44:29.340Z,99.99
2022-11-29T06:45:29.340Z,99.99
2022-11-29T06:46:29.388Z,99.99
2022-11-29T06:47:29.320Z,99.99
2022-11-29T06:48:29.291Z,99.99
2022-11-29T06:49:32.296Z,99.99
2022-11-29T06:50:29.282Z,99.99
2022-11-29T06:51:29.280Z,99.99
2022-11-29T06:52:29.262Z,99.99
2022-11-29T06:53:29.251Z,99.99
2022-11-29T06:54:29.241Z,99.99
2022-11-29T06:55:29.250Z,99.99
2022-11-29T06:56:29.214Z,99.99
2022-11-29T06:57:29.229Z,99.99
2022-11-29T06:58:34.472Z,99.99
2022-11-29T06:59:30.191Z,99.99
2022-11-29T07:00:29.643Z,99.99
2022-11-29T07:01:29.196Z,99.99
2022-11-29T07:02:29.234Z,99.99
2022-11-29T07:03:29.143Z,99.99
2022-11-29T07:04:29.131Z,99.99
2022-11-29T07:05:29.121Z,99.99
2022-11-29T07:06:29.100Z,99.99
2022-11-29T07:07:29.258Z,99.99
2022-11-29T07:08:29.122Z,99.99
2022-11-29T07:09:29.078Z,99.99
2022-11-29T07:10:29.059Z,99.99
2022-11-29T07:11:29.063Z,99.99
2022-11-29T07:12:29.077Z,99.99
2022-11-29T07:13:29.029Z,99.99
2022-11-29T07:14:29.018Z,99.99
2022-11-29T07:15:29.019Z,99.99
2022-11-29T07:16:29.035Z,99.99
2022-11-29T07:17:28.989Z,99.99
2022-11-29T07:18:29.517Z,99.99
2022-11-29T07:19:28.969Z,99.99
2022-11-29T07:20:28.947Z,99.99
2022-11-29T07:21:28.938Z,99.99
2022-11-29T07:22:28.927Z,99.99
2022-11-29T07:23:28.928Z,99.99
2022-11-29T07:24:28.938Z,99.99
2022-11-29T07:25:28.897Z,99.99
2022-11-29T07:26:28.887Z,99.99
2022-11-29T07:27:28.878Z,99.99
2022-11-29T07:28:28.859Z,99.99
2022-11-29T07:29:28.858Z,99.99
2022-11-29T07:30:29.011Z,99.99
2022-11-29T07:31:28.917Z,99.99
2022-11-29T07:32:28.817Z,99.99
2022-11-29T07:33:28.841Z,99.99
2022-11-29T07:34:28.796Z,99.99
2022-11-29T07:35:28.787Z,99.99
2022-11-29T07:36:28.776Z,99.99
2022-11-29T07:37:28.807Z,99.99
2022-11-29T07:38:28.754Z,99.99
2022-11-29T07:39:30.445Z,99.99
2022-11-29T07:40:31.970Z,99.99
2022-11-29T07:41:30.008Z,99.99
2022-11-29T07:42:28.706Z,99.99
2022-11-29T07:43:28.747Z,99.99
2022-11-29T07:44:28.720Z,99.99
2022-11-29T07:45:28.692Z,99.99
2022-11-29T07:46:28.737Z,99.99
2022-11-29T07:47:34.071Z,99.99
2022-11-29T07:48:29.656Z,99.99
2022-11-29T07:49:28.648Z,99.99
2022-11-29T07:50:28.626Z,99.99
2022-11-29T07:51:28.659Z,99.99
2022-11-29T07:52:28.606Z,99.99
2022-11-29T07:53:28.596Z,99.99
2022-11-29T07:54:28.625Z,99.99
2022-11-29T07:55:28.595Z,99.99
2022-11-29T07:56:28.694Z,99.99
2022-11-29T07:57:28.555Z,99.99
2022-11-29T07:58:28.582Z,99.99
2022-11-29T07:59:28.545Z,99.99
2022-11-29T08:00:38.514Z,99.99
2022-11-29T08:01:28.544Z,99.99
2022-11-29T08:02:28.556Z,99.99
2022-11-29T08:03:28.486Z,99.99
2022-11-29T08:04:28.495Z,99.99
2022-11-29T08:05:28.546Z,99.99
2022-11-29T08:06:28.545Z,99.99
2022-11-29T08:07:30.748Z,99.99
2022-11-29T08:08:28.434Z,99.99
2022-11-29T08:09:28.435Z,99.99
2022-11-29T08:10:28.406Z,99.99
2022-11-29T08:11:28.406Z,99.88
2022-11-29T08:12:28.385Z,99.98
2022-11-29T08:13:28.695Z,99.98
2022-11-29T08:14:28.394Z,99.98
2022-11-29T08:15:28.384Z,99.98
2022-11-29T08:16:28.383Z,99.98
2022-11-29T08:17:28.383Z,99.88
2022-11-29T08:18:28.325Z,99.88
2022-11-29T08:19:28.365Z,99.98
2022-11-29T08:20:28.452Z,99.98
2022-11-29T08:21:28.294Z,99.98
2022-11-29T08:22:28.284Z,99.98
2022-11-29T08:23:28.265Z,99.88
2022-11-29T08:24:28.327Z,99.82
2022-11-29T08:25:28.814Z,99.93
2022-11-29T08:26:31.421Z,99.93
2022-11-29T08:27:28.224Z,99.93
2022-11-29T08:28:28.220Z,99.93
2022-11-29T08:29:28.211Z,99.88
2022-11-29T08:30:28.246Z,99.88
2022-11-29T08:31:28.225Z,99.98
2022-11-29T08:32:28.226Z,99.88
2022-11-29T08:33:28.174Z,99.98
2022-11-29T08:34:28.163Z,99.98
2022-11-29T08:35:28.144Z,99.98
2022-11-29T08:36:28.133Z,99.98
2022-11-29T08:37:28.124Z,99.98
2022-11-29T08:38:28.414Z,99.98
2022-11-29T08:39:28.110Z,99.98
2022-11-29T08:40:28.092Z,99.98
2022-11-29T08:41:28.081Z,99.99
2022-11-29T08:42:28.074Z,99.99
2022-11-29T08:43:28.133Z,99.98
2022-11-29T08:44:28.094Z,99.98
2022-11-29T08:45:28.095Z,99.99
2022-11-29T08:46:28.022Z,99.99
2022-11-29T08:47:28.672Z,99.99
2022-11-29T08:48:28.002Z,99.99
2022-11-29T08:49:27.994Z,99.99
2022-11-29T08:50:28.050Z,99.99
2022-11-29T08:51:28.012Z,99.98
2022-11-29T08:52:27.974Z,99.88
2022-11-29T08:53:27.972Z,99.98
2022-11-29T08:54:28.145Z,99.99
2022-11-29T08:55:27.966Z,99.99
2022-11-29T08:57:39.726Z,99.99
2022-11-29T08:58:28.897Z,99.99
2022-11-29T08:59:27.877Z,99.99
2022-11-29T09:00:27.899Z,99.99
2022-11-29T09:01:29.785Z,99.99
2022-11-29T09:02:27.967Z,99.99
2022-11-29T09:03:27.871Z,99.99
2022-11-29T09:04:27.832Z,99.99
2022-11-29T09:05:27.821Z,99.99
2022-11-29T09:06:27.823Z,99.99
2022-11-29T09:07:27.827Z,99.99
2022-11-29T09:08:34.877Z,99.99
2022-11-29T09:09:27.768Z,99.99
2022-11-29T09:10:28.506Z,99.99
2022-11-29T09:11:27.747Z,99.99
2022-11-29T09:12:27.898Z,99.99
2022-11-29T09:13:27.738Z,99.99
2022-11-29T09:14:27.756Z,99.99
2022-11-29T09:15:27.712Z,99.99
2022-11-29T09:16:27.750Z,99.99
2022-11-29T09:17:27.688Z,99.99
2022-11-29T09:18:27.689Z,99.99
2022-11-29T09:19:27.675Z,99.99
2022-11-29T09:20:27.692Z,99.99
2022-11-29T09:21:27.638Z,99.99
2022-11-29T09:22:27.627Z,99.99
2022-11-29T09:23:27.615Z,99.99
2022-11-29T09:24:27.618Z,99.99
2022-11-29T09:25:27.623Z,99.99
2022-11-29T09:26:27.594Z,99.99
2022-11-29T09:27:27.565Z,99.99
2022-11-29T09:28:27.601Z,99.99
2022-11-29T09:29:27.547Z,99.99
2022-11-29T09:30:27.545Z,99.99
2022-11-29T09:31:27.698Z,99.99
2022-11-29T09:32:27.525Z,99.99
2022-11-29T09:33:27.506Z,99.99
2022-11-29T09:34:27.494Z,99.99
2022-11-29T09:35:27.512Z,99.99
2022-11-29T09:36:29.085Z,99.99
2022-11-29T09:37:27.636Z,99.99
2022-11-29T09:38:27.474Z,99.99
2022-11-29T09:39:27.452Z,99.99
2022-11-29T09:40:27.445Z,99.99
2022-11-29T09:41:27.455Z,99.99
2022-11-29T09:42:27.415Z,99.99
2022-11-29T09:43:27.406Z,99.99
2022-11-29T09:44:27.396Z,99.99
2022-11-29T09:45:27.384Z,99.99
2022-11-29T09:46:27.516Z,99.99
2022-11-29T09:47:27.355Z,99.99
2022-11-29T09:48:33.264Z,99.98
2022-11-29T09:49:27.346Z,99.98
2022-11-29T09:50:27.335Z,99.98
2022-11-29T09:51:27.315Z,99.88
2022-11-29T09:52:27.305Z,99.88
2022-11-29T09:53:33.714Z,99.88
2022-11-29T09:54:27.286Z,99.98
2022-11-29T09:55:27.273Z,99.77
2022-11-29T09:56:27.264Z,99.67
2022-11-29T09:57:27.245Z,99.67
2022-11-29T09:58:28.953Z,99.67
2022-11-29T09:59:27.233Z,99.57
2022-11-29T10:00:27.225Z,99.67
2022-11-29T10:01:27.236Z,99.47
2022-11-29T10:02:27.254Z,99.37
2022-11-29T10:03:27.204Z,99.26
2022-11-29T10:04:27.203Z,99.37
2022-11-29T10:05:27.193Z,99.26
2022-11-29T10:06:27.154Z,99.16
2022-11-29T10:07:27.206Z,99.16
2022-11-29T10:08:27.143Z,98.96
2022-11-29T10:09:32.240Z,98.96
2022-11-29T10:10:28.113Z,98.96
2022-11-29T10:11:27.259Z,98.96
2022-11-29T10:12:27.095Z,99.05
2022-11-29T10:13:27.085Z,98.96
2022-11-29T10:14:29.443Z,98.85
2022-11-29T10:15:27.055Z,98.85
2022-11-29T10:16:27.110Z,98.85
2022-11-29T10:17:27.033Z,98.85
2022-11-29T10:18:27.031Z,98.85
2022-11-29T10:19:27.021Z,98.85
2022-11-29T10:20:27.117Z,98.75
2022-11-29T10:21:27.001Z,98.75
2022-11-29T10:22:27.011Z,98.85
2022-11-29T10:23:26.963Z,98.85
2022-11-29T10:24:26.967Z,98.75
2022-11-29T10:25:26.941Z,98.75
2022-11-29T10:26:32.025Z,98.85
2022-11-29T10:27:27.921Z,98.85
2022-11-29T10:28:26.920Z,98.85
2022-11-29T10:29:26.901Z,98.96
2022-11-29T10:30:26.934Z,98.96
2022-11-29T10:31:26.890Z,98.96
2022-11-29T10:32:26.892Z,98.96
2022-11-29T10:33:26.859Z,99.05
2022-11-29T10:34:26.865Z,99.05
2022-11-29T10:35:26.840Z,99.05
2022-11-29T10:36:27.220Z,99.16
2022-11-29T10:37:26.810Z,99.16
2022-11-29T10:38:31.444Z,99.16
2022-11-29T10:39:27.791Z,99.16
2022-11-29T10:40:26.780Z,99.26
2022-11-29T10:41:26.770Z,99.26
2022-11-29T10:42:26.768Z,99.26
2022-11-29T10:43:26.748Z,99.37
2022-11-29T10:44:26.783Z,99.37
2022-11-29T10:45:26.969Z,99.47
2022-11-29T10:46:26.792Z,99.47
2022-11-29T10:47:26.712Z,99.47
2022-11-29T10:48:26.708Z,99.52
2022-11-29T10:49:26.719Z,99.52
2022-11-29T10:50:26.707Z,99.52
2022-11-29T10:51:26.840Z,99.52
2022-11-29T10:52:26.698Z,99.52
2022-11-29T10:53:26.641Z,99.32
2022-11-29T10:54:26.658Z,99.32
2022-11-29T10:55:26.629Z,99.32
2022-11-29T10:56:26.622Z,99.37
2022-11-29T10:57:26.639Z,99.26
2022-11-29T10:58:28.550Z,99.37
2022-11-29T10:59:28.389Z,99.37
2022-11-29T11:00:26.569Z,99.37
2022-11-29T11:01:26.610Z,99.37
2022-11-29T11:02:26.599Z,99.26
2022-11-29T11:03:26.529Z,99.37
2022-11-29T11:04:29.968Z,99.37
2022-11-29T11:05:26.604Z,99.32
2022-11-29T11:06:26.512Z,99.32
2022-11-29T11:07:26.529Z,99.32
2022-11-29T11:08:26.488Z,99.42
2022-11-29T11:09:30.051Z,99.42
2022-11-29T11:10:26.475Z,99.42
2022-11-29T11:11:26.459Z,99.42
2022-11-29T11:12:26.451Z,99.42
2022-11-29T11:13:26.430Z,99.42
2022-11-29T11:14:26.419Z,99.42
2022-11-29T11:15:26.535Z,99.42
2022-11-29T11:16:26.436Z,99.21
2022-11-29T11:17:26.588Z,99.32
2022-11-29T11:18:26.629Z,99.32
2022-11-29T11:19:26.372Z,99.42
2022-11-29T11:20:26.366Z,99.52
2022-11-29T11:21:26.369Z,99.52
2022-11-29T11:22:26.334Z,99.52
2022-11-29T11:23:32.608Z,99.52
2022-11-29T11:24:26.309Z,99.52
2022-11-29T11:25:26.297Z,99.52
2022-11-29T11:26:26.322Z,99.52
2022-11-29T11:27:26.277Z,99.42
2022-11-29T11:28:26.270Z,99.52
2022-11-29T11:29:27.289Z,99.52
2022-11-29T11:30:26.248Z,99.52
2022-11-29T11:31:26.262Z,99.52
2022-11-29T11:32:26.217Z,99.63
2022-11-29T11:33:26.207Z,99.63
2022-11-29T11:34:26.208Z,99.63
2022-11-29T11:35:26.217Z,99.63
2022-11-29T11:36:26.208Z,99.63
2022-11-29T11:37:26.167Z,99.63
2022-11-29T11:38:26.168Z,99.52
2022-11-29T11:39:26.175Z,99.52
2022-11-29T11:40:26.217Z,99.52
2022-11-29T11:41:26.126Z,99.52
2022-11-29T11:42:26.197Z,99.52
2022-11-29T11:43:26.108Z,99.52
2022-11-29T11:44:46.548Z,99.52
2022-11-29T11:45:27.078Z,99.52
2022-11-29T11:46:26.145Z,99.52
2022-11-29T11:47:26.060Z,99.52
2022-11-29T11:48:26.056Z,99.42
2022-11-29T11:49:26.058Z,99.52
2022-11-29T11:50:26.066Z,99.52
2022-11-29T11:51:26.019Z,99.63
2022-11-29T11:52:26.024Z,99.52
2022-11-29T11:53:26.007Z,99.63
2022-11-29T11:54:25.988Z,99.52
2022-11-29T11:55:25.976Z,99.47
2022-11-29T11:56:26.046Z,99.57
2022-11-29T11:57:25.969Z,99.57
2022-11-29T11:58:25.947Z,99.57
2022-11-29T11:59:25.926Z,99.57
2022-11-29T12:00:55.493Z,99.57
2022-11-29T12:01:26.937Z,99.67
2022-11-29T12:02:25.995Z,99.77
2022-11-29T12:03:25.934Z,99.88
2022-11-29T12:04:25.895Z,99.88
2022-11-29T12:05:25.915Z,99.88
2022-11-29T12:06:25.907Z,99.98
2022-11-29T12:07:38.936Z,99.99
2022-11-29T12:08:26.861Z,99.99
2022-11-29T12:09:25.824Z,99.99
2022-11-29T12:10:25.813Z,99.99
2022-11-29T12:11:25.995Z,99.99
2022-11-29T12:12:25.819Z,99.99
2022-11-29T12:13:25.785Z,99.99
2022-11-29T12:14:25.765Z,99.99
2022-11-29T12:15:25.793Z,99.99
2022-11-29T12:16:25.752Z,99.99
2022-11-29T12:17:25.733Z,99.99
2022-11-29T12:18:25.757Z,99.99
2022-11-29T12:19:25.713Z,99.99
2022-11-29T12:20:25.725Z,99.99
2022-11-29T12:21:25.684Z,99.99
2022-11-29T12:22:25.723Z,99.99
2022-11-29T12:23:25.675Z,99.99
2022-11-29T12:24:25.663Z,99.99
2022-11-29T12:25:25.674Z,99.99
2022-11-29T12:26:55.373Z,99.99
2022-11-29T12:27:26.683Z,99.99
2022-11-29T12:28:25.633Z,99.99
2022-11-29T12:29:25.623Z,99.99
2022-11-29T12:30:25.622Z,99.99
2022-11-29T12:31:25.626Z,99.99
2022-11-29T12:32:26.170Z,99.99
2022-11-29T12:33:25.561Z,99.99
2022-11-29T12:34:25.565Z,99.99
2022-11-29T12:35:29.002Z,99.99
2022-11-29T12:36:25.553Z,99.99
2022-11-29T12:37:25.513Z,99.99
2022-11-29T12:38:25.512Z,99.99
2022-11-29T12:39:25.499Z,99.99
2022-11-29T12:40:25.486Z,99.99
2022-11-29T12:41:25.600Z,99.99
2022-11-29T12:42:25.462Z,99.99
2022-11-29T12:43:25.452Z,99.99
2022-11-29T12:44:25.443Z,99.99
2022-11-29T12:45:25.451Z,99.99
2022-11-29T12:46:25.520Z,99.99
2022-11-29T12:47:35.598Z,99.99
2022-11-29T12:48:26.402Z,99.99
2022-11-29T12:49:25.394Z,99.99
2022-11-29T12:50:25.503Z,99.99
2022-11-29T12:51:25.363Z,99.99
2022-11-29T12:52:25.362Z,99.99
2022-11-29T12:53:27.443Z,99.99
2022-11-29T12:54:25.342Z,99.99